Fort Davis, TX

11:26 AM CST on February 08, 2016 (GMT -0600)
RAWS | | Change Station
CLOSE
Current Station
Personal Weather Station
Location: Fort Davis, TX
Elevation: 4764 ft
Nearby Weather Stations

Elev 4764 ft 30.60 °N, 103.89 °W | Updated 23 minutes ago

Partly Cloudy
Partly Cloudy
39 °F
Feels Like 34 °F
N
7
Wind Variable Wind from ENE
Gusts 14.0 mph

Today
High -- | Low -- °F
--% Chance of Precip.
Yesterday
High -- | Low -- °F
Precip. -- in
Pressure 30.50 in
Visibility 10.0 miles
Clouds Clear
Windchill 34 °F
Dew Point 9 °F
Humidity 29%
Rainfall in
Snow Depth Not available.
7:42 AM 6:37 PM
New Moon, 0% visible
METAR KMRF 081656Z AUTO 05014KT 10SM CLR 05/M11 A3050 RMK AO2 SLP328 T00501106
Pressure 30.50 in
Visibility 10.0 miles
Clouds Clear
Windchill 34 °F
Dew Point 9 °F
Humidity 29%
Rainfall in
Snow Depth Not available.
7:42 AM 6:37 PM
New Moon, 0% visible
METAR KMRF 081656Z AUTO 05014KT 10SM CLR 05/M11 A3050 RMK AO2 SLP328 T00501106

10-Day Weather Forecast

Almanac

Astronomy

Feb. 08, 2016 Rise Set
Actual Time
Civil Twilight
Nautical Twilight
Astronomical Twilight
Moon
Length of Visible Light
Length of Day
Tomorrow will be .
, % of the Moon is Illuminated

Today's Extremes

State Highs State Lows

Community

WunderPhotos

Upload Photos

1,891,471 photos uploaded!

WunderBlog® & News

Nearby

Air Quality

  Air Quality AQ Index Pollutant
Not available.

Snow Depth

Station Depth Elevation

Earthquake Activity

City Distance Mag. Time & Date
Minimum magnitude displayed is 2.5.

Coastal Water Temperatures

Place Temperature

Stations

Nearby Weather Stations

Station Location Temp. Windchill Dew Point Humidity Wind Precip. Elev Updated Type
                   

Watches & Warnings

There are currently no watches in effect.